sensor_id;sensor_type;location;lat;lon;timestamp;P1;durP1;ratioP1;P2;durP2;ratioP2
72674;SDS011;60752;53.962;9.614;2022-12-26T00:04:18;16.60;;;6.93;;
72674;SDS011;60752;53.962;9.614;2022-12-26T00:09:20;15.97;;;6.83;;
72674;SDS011;60752;53.962;9.614;2022-12-26T00:14:22;19.63;;;6.70;;
72674;SDS011;60752;53.962;9.614;2022-12-26T00:19:27;16.20;;;6.85;;
72674;SDS011;60752;53.962;9.614;2022-12-26T00:24:28;17.10;;;7.00;;
72674;SDS011;60752;53.962;9.614;2022-12-26T00:29:32;21.10;;;7.45;;
72674;SDS011;60752;53.962;9.614;2022-12-26T00:34:33;21.73;;;7.80;;
72674;SDS011;60752;53.962;9.614;2022-12-26T00:39:33;18.43;;;7.60;;
72674;SDS011;60752;53.962;9.614;2022-12-26T00:44:35;16.60;;;8.50;;
72674;SDS011;60752;53.962;9.614;2022-12-26T00:49:35;15.87;;;6.57;;
72674;SDS011;60752;53.962;9.614;2022-12-26T00:54:36;19.00;;;7.13;;
72674;SDS011;60752;53.962;9.614;2022-12-26T00:59:38;15.13;;;7.23;;
72674;SDS011;60752;53.962;9.614;2022-12-26T01:04:38;18.63;;;7.40;;
72674;SDS011;60752;53.962;9.614;2022-12-26T01:09:39;24.67;;;7.45;;
72674;SDS011;60752;53.962;9.614;2022-12-26T01:14:44;25.20;;;8.03;;
72674;SDS011;60752;53.962;9.614;2022-12-26T01:19:46;24.40;;;7.53;;
72674;SDS011;60752;53.962;9.614;2022-12-26T01:24:47;18.07;;;6.90;;
72674;SDS011;60752;53.962;9.614;2022-12-26T01:29:49;16.90;;;7.10;;
72674;SDS011;60752;53.962;9.614;2022-12-26T01:34:49;20.10;;;6.95;;
72674;SDS011;60752;53.962;9.614;2022-12-26T01:39:50;25.67;;;8.23;;
72674;SDS011;60752;53.962;9.614;2022-12-26T01:44:57;18.05;;;8.23;;
72674;SDS011;60752;53.962;9.614;2022-12-26T01:50:00;19.70;;;7.97;;
72674;SDS011;60752;53.962;9.614;2022-12-26T01:55:01;20.10;;;8.20;;
72674;SDS011;60752;53.962;9.614;2022-12-26T02:00:09;19.30;;;8.43;;
72674;SDS011;60752;53.962;9.614;2022-12-26T02:05:11;22.27;;;7.88;;
72674;SDS011;60752;53.962;9.614;2022-12-26T02:10:12;18.13;;;8.00;;
72674;SDS011;60752;53.962;9.614;2022-12-26T02:15:16;19.30;;;7.00;;
72674;SDS011;60752;53.962;9.614;2022-12-26T02:20:26;18.37;;;7.60;;
72674;SDS011;60752;53.962;9.614;2022-12-26T02:25:35;18.45;;;8.07;;
72674;SDS011;60752;53.962;9.614;2022-12-26T02:31:02;20.98;;;7.45;;
72674;SDS011;60752;53.962;9.614;2022-12-26T02:36:17;17.63;;;6.90;;
72674;SDS011;60752;53.962;9.614;2022-12-26T02:41:37;41.33;;;8.63;;
72674;SDS011;60752;53.962;9.614;2022-12-26T02:46:48;18.23;;;7.10;;
72674;SDS011;60752;53.962;9.614;2022-12-26T02:51:56;17.13;;;7.47;;
72674;SDS011;60752;53.962;9.614;2022-12-26T02:57:04;18.27;;;7.23;;
72674;SDS011;60752;53.962;9.614;2022-12-26T03:02:13;17.13;;;6.80;;
72674;SDS011;60752;53.962;9.614;2022-12-26T03:07:24;20.10;;;6.78;;
72674;SDS011;60752;53.962;9.614;2022-12-26T03:12:30;15.80;;;6.33;;
72674;SDS011;60752;53.962;9.614;2022-12-26T03:17:37;16.33;;;5.53;;
72674;SDS011;60752;53.962;9.614;2022-12-26T03:22:42;15.05;;;5.80;;
72674;SDS011;60752;53.962;9.614;2022-12-26T03:27:46;13.90;;;4.90;;
72674;SDS011;60752;53.962;9.614;2022-12-26T03:32:48;15.47;;;5.27;;
72674;SDS011;60752;53.962;9.614;2022-12-26T03:37:48;13.87;;;4.63;;
72674;SDS011;60752;53.962;9.614;2022-12-26T03:42:54;11.73;;;4.17;;
72674;SDS011;60752;53.962;9.614;2022-12-26T03:48:05;15.10;;;4.93;;
72674;SDS011;60752;53.962;9.614;2022-12-26T03:53:16;16.25;;;4.43;;
72674;SDS011;60752;53.962;9.614;2022-12-26T03:58:21;14.70;;;4.80;;
72674;SDS011;60752;53.962;9.614;2022-12-26T04:03:27;15.25;;;5.25;;
72674;SDS011;60752;53.962;9.614;2022-12-26T04:08:33;15.68;;;5.85;;
72674;SDS011;60752;53.962;9.614;2022-12-26T04:13:45;20.83;;;5.70;;
72674;SDS011;60752;53.962;9.614;2022-12-26T04:18:55;19.38;;;5.38;;
72674;SDS011;60752;53.962;9.614;2022-12-26T04:24:01;21.33;;;6.15;;
72674;SDS011;60752;53.962;9.614;2022-12-26T04:29:07;17.47;;;6.57;;
72674;SDS011;60752;53.962;9.614;2022-12-26T04:34:10;15.63;;;6.23;;
72674;SDS011;60752;53.962;9.614;2022-12-26T04:39:18;29.97;;;7.33;;
72674;SDS011;60752;53.962;9.614;2022-12-26T04:44:24;18.45;;;6.22;;
72674;SDS011;60752;53.962;9.614;2022-12-26T04:49:27;20.30;;;7.60;;
72674;SDS011;60752;53.962;9.614;2022-12-26T04:54:28;17.93;;;6.73;;
72674;SDS011;60752;53.962;9.614;2022-12-26T04:59:28;17.43;;;5.97;;
72674;SDS011;60752;53.962;9.614;2022-12-26T05:04:30;17.70;;;6.77;;
72674;SDS011;60752;53.962;9.614;2022-12-26T05:09:31;22.13;;;6.77;;
72674;SDS011;60752;53.962;9.614;2022-12-26T05:14:31;16.13;;;6.68;;
72674;SDS011;60752;53.962;9.614;2022-12-26T05:19:34;18.30;;;7.07;;
72674;SDS011;60752;53.962;9.614;2022-12-26T05:24:36;22.20;;;7.55;;
72674;SDS011;60752;53.962;9.614;2022-12-26T05:29:39;18.92;;;6.88;;
72674;SDS011;60752;53.962;9.614;2022-12-26T05:34:41;21.40;;;6.43;;
72674;SDS011;60752;53.962;9.614;2022-12-26T05:39:42;15.10;;;5.53;;
72674;SDS011;60752;53.962;9.614;2022-12-26T05:44:42;16.60;;;6.33;;
72674;SDS011;60752;53.962;9.614;2022-12-26T05:49:47;14.27;;;5.13;;
72674;SDS011;60752;53.962;9.614;2022-12-26T05:54:47;16.40;;;6.63;;
72674;SDS011;60752;53.962;9.614;2022-12-26T05:59:47;16.27;;;5.63;;
72674;SDS011;60752;53.962;9.614;2022-12-26T06:04:49;14.93;;;5.60;;
72674;SDS011;60752;53.962;9.614;2022-12-26T06:09:50;15.73;;;6.47;;
72674;SDS011;60752;53.962;9.614;2022-12-26T06:14:50;18.23;;;6.77;;
72674;SDS011;60752;53.962;9.614;2022-12-26T06:19:52;17.10;;;6.97;;
72674;SDS011;60752;53.962;9.614;2022-12-26T06:24:52;19.70;;;6.88;;
72674;SDS011;60752;53.962;9.614;2022-12-26T06:29:53;20.63;;;7.07;;
72674;SDS011;60752;53.962;9.614;2022-12-26T06:34:54;20.33;;;8.13;;
72674;SDS011;60752;53.962;9.614;2022-12-26T06:39:55;18.23;;;8.00;;
72674;SDS011;60752;53.962;9.614;2022-12-26T06:44:55;18.30;;;7.60;;
72674;SDS011;60752;53.962;9.614;2022-12-26T06:49:57;14.73;;;5.77;;
72674;SDS011;60752;53.962;9.614;2022-12-26T06:54:57;18.02;;;6.05;;
72674;SDS011;60752;53.962;9.614;2022-12-26T06:59:58;19.27;;;7.07;;
72674;SDS011;60752;53.962;9.614;2022-12-26T07:05:00;15.67;;;5.93;;
72674;SDS011;60752;53.962;9.614;2022-12-26T07:10:00;17.67;;;6.63;;
72674;SDS011;60752;53.962;9.614;2022-12-26T07:15:01;17.13;;;6.47;;
72674;SDS011;60752;53.962;9.614;2022-12-26T07:20:02;19.40;;;7.93;;
72674;SDS011;60752;53.962;9.614;2022-12-26T07:25:04;16.90;;;6.50;;
72674;SDS011;60752;53.962;9.614;2022-12-26T07:30:05;15.82;;;6.43;;
72674;SDS011;60752;53.962;9.614;2022-12-26T07:35:08;15.38;;;6.10;;
72674;SDS011;60752;53.962;9.614;2022-12-26T07:40:09;19.50;;;7.13;;
72674;SDS011;60752;53.962;9.614;2022-12-26T07:45:11;13.10;;;6.00;;
72674;SDS011;60752;53.962;9.614;2022-12-26T07:50:12;16.53;;;7.47;;
72674;SDS011;60752;53.962;9.614;2022-12-26T07:55:13;17.83;;;6.93;;
72674;SDS011;60752;53.962;9.614;2022-12-26T08:00:14;22.20;;;7.37;;
72674;SDS011;60752;53.962;9.614;2022-12-26T08:05:16;14.82;;;6.13;;
72674;SDS011;60752;53.962;9.614;2022-12-26T08:10:17;20.73;;;8.27;;
72674;SDS011;60752;53.962;9.614;2022-12-26T08:15:17;17.40;;;8.07;;
72674;SDS011;60752;53.962;9.614;2022-12-26T08:20:19;17.37;;;7.27;;
72674;SDS011;60752;53.962;9.614;2022-12-26T08:25:19;17.27;;;7.22;;
72674;SDS011;60752;53.962;9.614;2022-12-26T08:30:19;19.17;;;8.10;;
72674;SDS011;60752;53.962;9.614;2022-12-26T08:35:21;20.07;;;8.33;;
72674;SDS011;60752;53.962;9.614;2022-12-26T08:40:22;20.30;;;8.85;;
72674;SDS011;60752;53.962;9.614;2022-12-26T08:45:22;19.73;;;8.07;;
72674;SDS011;60752;53.962;9.614;2022-12-26T08:50:24;20.27;;;8.50;;
72674;SDS011;60752;53.962;9.614;2022-12-26T08:55:25;20.83;;;8.30;;
72674;SDS011;60752;53.962;9.614;2022-12-26T09:00:25;26.43;;;8.13;;
72674;SDS011;60752;53.962;9.614;2022-12-26T09:05:27;21.30;;;9.20;;
72674;SDS011;60752;53.962;9.614;2022-12-26T09:10:28;22.45;;;9.45;;
72674;SDS011;60752;53.962;9.614;2022-12-26T09:15:28;19.33;;;8.47;;
72674;SDS011;60752;53.962;9.614;2022-12-26T09:20:31;21.73;;;8.67;;
72674;SDS011;60752;53.962;9.614;2022-12-26T09:25:31;22.27;;;8.77;;
72674;SDS011;60752;53.962;9.614;2022-12-26T09:30:32;21.00;;;9.03;;
72674;SDS011;60752;53.962;9.614;2022-12-26T09:35:33;18.77;;;8.47;;
72674;SDS011;60752;53.962;9.614;2022-12-26T09:40:43;22.03;;;9.37;;
72674;SDS011;60752;53.962;9.614;2022-12-26T09:45:54;19.67;;;8.80;;
72674;SDS011;60752;53.962;9.614;2022-12-26T09:51:00;24.45;;;9.90;;
72674;SDS011;60752;53.962;9.614;2022-12-26T09:56:01;22.33;;;8.63;;
72674;SDS011;60752;53.962;9.614;2022-12-26T10:01:06;23.98;;;8.63;;
72674;SDS011;60752;53.962;9.614;2022-12-26T10:06:11;21.60;;;9.52;;
72674;SDS011;60752;53.962;9.614;2022-12-26T10:11:16;22.40;;;8.43;;
72674;SDS011;60752;53.962;9.614;2022-12-26T10:16:20;18.63;;;8.50;;
72674;SDS011;60752;53.962;9.614;2022-12-26T10:21:33;20.02;;;8.52;;
72674;SDS011;60752;53.962;9.614;2022-12-26T10:26:40;18.23;;;7.97;;
72674;SDS011;60752;53.962;9.614;2022-12-26T10:31:43;19.60;;;8.03;;
72674;SDS011;60752;53.962;9.614;2022-12-26T10:36:49;19.08;;;8.50;;
72674;SDS011;60752;53.962;9.614;2022-12-26T10:41:51;16.52;;;6.80;;
72674;SDS011;60752;53.962;9.614;2022-12-26T10:47:01;19.33;;;7.93;;
72674;SDS011;60752;53.962;9.614;2022-12-26T10:52:16;20.65;;;8.45;;
72674;SDS011;60752;53.962;9.614;2022-12-26T10:57:19;16.85;;;7.25;;
72674;SDS011;60752;53.962;9.614;2022-12-26T11:02:22;16.73;;;6.97;;
72674;SDS011;60752;53.962;9.614;2022-12-26T11:07:26;17.10;;;7.87;;
72674;SDS011;60752;53.962;9.614;2022-12-26T11:12:33;17.92;;;8.05;;
72674;SDS011;60752;53.962;9.614;2022-12-26T11:17:39;15.35;;;6.72;;
72674;SDS011;60752;53.962;9.614;2022-12-26T11:22:44;15.97;;;6.90;;
72674;SDS011;60752;53.962;9.614;2022-12-26T11:27:46;17.52;;;7.53;;
72674;SDS011;60752;53.962;9.614;2022-12-26T11:32:49;17.30;;;6.80;;
72674;SDS011;60752;53.962;9.614;2022-12-26T11:38:04;15.87;;;6.93;;
72674;SDS011;60752;53.962;9.614;2022-12-26T11:43:11;20.27;;;8.85;;
72674;SDS011;60752;53.962;9.614;2022-12-26T11:48:17;18.48;;;6.38;;
72674;SDS011;60752;53.962;9.614;2022-12-26T11:53:22;17.63;;;7.10;;
72674;SDS011;60752;53.962;9.614;2022-12-26T11:58:22;18.40;;;7.63;;
72674;SDS011;60752;53.962;9.614;2022-12-26T12:03:25;18.58;;;7.28;;
72674;SDS011;60752;53.962;9.614;2022-12-26T12:08:33;18.93;;;8.27;;
72674;SDS011;60752;53.962;9.614;2022-12-26T12:13:51;18.10;;;7.73;;
72674;SDS011;60752;53.962;9.614;2022-12-26T12:19:05;15.98;;;6.95;;
72674;SDS011;60752;53.962;9.614;2022-12-26T12:24:21;10.23;;;5.28;;
72674;SDS011;60752;53.962;9.614;2022-12-26T12:29:34;18.40;;;6.40;;
72674;SDS011;60752;53.962;9.614;2022-12-26T12:35:01;11.18;;;4.85;;
72674;SDS011;60752;53.962;9.614;2022-12-26T12:40:27;9.90;;;3.40;;
72674;SDS011;60752;53.962;9.614;2022-12-26T12:45:34;6.80;;;3.23;;
72674;SDS011;60752;53.962;9.614;2022-12-26T12:50:43;10.10;;;2.42;;
72674;SDS011;60752;53.962;9.614;2022-12-26T12:55:57;4.50;;;1.13;;
72674;SDS011;60752;53.962;9.614;2022-12-26T13:01:03;4.27;;;1.40;;
72674;SDS011;60752;53.962;9.614;2022-12-26T13:06:07;6.53;;;1.20;;
72674;SDS011;60752;53.962;9.614;2022-12-26T13:11:15;7.35;;;1.33;;
72674;SDS011;60752;53.962;9.614;2022-12-26T13:16:21;6.28;;;1.05;;
72674;SDS011;60752;53.962;9.614;2022-12-26T13:21:24;5.60;;;1.50;;
72674;SDS011;60752;53.962;9.614;2022-12-26T13:26:28;13.48;;;1.90;;
72674;SDS011;60752;53.962;9.614;2022-12-26T13:31:30;6.15;;;1.73;;
72674;SDS011;60752;53.962;9.614;2022-12-26T13:36:32;14.30;;;2.23;;
72674;SDS011;60752;53.962;9.614;2022-12-26T13:41:36;8.00;;;1.45;;
72674;SDS011;60752;53.962;9.614;2022-12-26T13:46:52;11.07;;;1.70;;
72674;SDS011;60752;53.962;9.614;2022-12-26T13:51:58;15.17;;;1.73;;
72674;SDS011;60752;53.962;9.614;2022-12-26T13:57:30;9.13;;;1.20;;
72674;SDS011;60752;53.962;9.614;2022-12-26T14:02:45;4.78;;;1.20;;
72674;SDS011;60752;53.962;9.614;2022-12-26T14:08:04;6.30;;;1.20;;
72674;SDS011;60752;53.962;9.614;2022-12-26T14:13:26;5.93;;;1.50;;
72674;SDS011;60752;53.962;9.614;2022-12-26T14:18:37;10.07;;;1.88;;
72674;SDS011;60752;53.962;9.614;2022-12-26T14:23:48;6.60;;;1.35;;
72674;SDS011;60752;53.962;9.614;2022-12-26T14:28:55;9.47;;;1.80;;
72674;SDS011;60752;53.962;9.614;2022-12-26T14:34:04;5.60;;;1.23;;
72674;SDS011;60752;53.962;9.614;2022-12-26T14:39:18;11.70;;;1.63;;
72674;SDS011;60752;53.962;9.614;2022-12-26T14:44:41;14.60;;;2.13;;
72674;SDS011;60752;53.962;9.614;2022-12-26T14:49:42;10.47;;;1.70;;
72674;SDS011;60752;53.962;9.614;2022-12-26T14:54:42;12.40;;;1.67;;
72674;SDS011;60752;53.962;9.614;2022-12-26T14:59:44;9.37;;;1.60;;
72674;SDS011;60752;53.962;9.614;2022-12-26T15:05:10;8.02;;;1.63;;
72674;SDS011;60752;53.962;9.614;2022-12-26T15:16:08;8.35;;;2.28;;
72674;SDS011;60752;53.962;9.614;2022-12-26T15:21:37;7.90;;;1.88;;
72674;SDS011;60752;53.962;9.614;2022-12-26T15:27:15;10.77;;;1.97;;
72674;SDS011;60752;53.962;9.614;2022-12-26T15:32:33;13.00;;;2.03;;
72674;SDS011;60752;53.962;9.614;2022-12-26T15:37:54;11.45;;;2.60;;
72674;SDS011;60752;53.962;9.614;2022-12-26T15:48:48;9.47;;;1.70;;
72674;SDS011;60752;53.962;9.614;2022-12-26T15:53:59;10.27;;;1.70;;
72674;SDS011;60752;53.962;9.614;2022-12-26T15:59:24;12.00;;;1.90;;
72674;SDS011;60752;53.962;9.614;2022-12-26T16:04:46;9.40;;;1.80;;
72674;SDS011;60752;53.962;9.614;2022-12-26T16:09:51;12.45;;;2.13;;
72674;SDS011;60752;53.962;9.614;2022-12-26T16:14:59;7.90;;;2.05;;
72674;SDS011;60752;53.962;9.614;2022-12-26T16:20:18;7.53;;;1.33;;
72674;SDS011;60752;53.962;9.614;2022-12-26T16:25:21;11.47;;;1.73;;
72674;SDS011;60752;53.962;9.614;2022-12-26T16:30:24;15.98;;;2.17;;
72674;SDS011;60752;53.962;9.614;2022-12-26T16:35:30;14.15;;;1.98;;
72674;SDS011;60752;53.962;9.614;2022-12-26T16:40:32;10.90;;;1.90;;
72674;SDS011;60752;53.962;9.614;2022-12-26T16:45:39;11.07;;;2.25;;
72674;SDS011;60752;53.962;9.614;2022-12-26T16:50:45;9.70;;;1.75;;
72674;SDS011;60752;53.962;9.614;2022-12-26T16:55:48;7.90;;;1.57;;
72674;SDS011;60752;53.962;9.614;2022-12-26T17:00:58;7.90;;;1.77;;
72674;SDS011;60752;53.962;9.614;2022-12-26T17:06:07;5.38;;;1.55;;
72674;SDS011;60752;53.962;9.614;2022-12-26T17:11:26;10.13;;;2.37;;
72674;SDS011;60752;53.962;9.614;2022-12-26T17:16:29;21.23;;;2.53;;
72674;SDS011;60752;53.962;9.614;2022-12-26T17:21:32;10.80;;;2.45;;
72674;SDS011;60752;53.962;9.614;2022-12-26T17:26:33;12.05;;;2.03;;
72674;SDS011;60752;53.962;9.614;2022-12-26T17:31:36;13.60;;;2.43;;
72674;SDS011;60752;53.962;9.614;2022-12-26T17:36:39;23.15;;;2.25;;
72674;SDS011;60752;53.962;9.614;2022-12-26T17:41:40;9.50;;;1.90;;
72674;SDS011;60752;53.962;9.614;2022-12-26T17:46:42;10.67;;;1.93;;
72674;SDS011;60752;53.962;9.614;2022-12-26T17:51:43;8.67;;;2.20;;
72674;SDS011;60752;53.962;9.614;2022-12-26T17:56:44;11.82;;;1.90;;
72674;SDS011;60752;53.962;9.614;2022-12-26T18:01:44;14.60;;;1.97;;
72674;SDS011;60752;53.962;9.614;2022-12-26T18:06:46;12.37;;;1.93;;
72674;SDS011;60752;53.962;9.614;2022-12-26T18:11:46;14.40;;;2.10;;
72674;SDS011;60752;53.962;9.614;2022-12-26T18:16:47;16.73;;;2.17;;
72674;SDS011;60752;53.962;9.614;2022-12-26T18:21:50;17.20;;;2.17;;
72674;SDS011;60752;53.962;9.614;2022-12-26T18:26:50;12.27;;;1.70;;
72674;SDS011;60752;53.962;9.614;2022-12-26T18:31:54;12.88;;;2.35;;
72674;SDS011;60752;53.962;9.614;2022-12-26T18:36:56;10.63;;;2.37;;
72674;SDS011;60752;53.962;9.614;2022-12-26T18:41:57;9.55;;;2.13;;
72674;SDS011;60752;53.962;9.614;2022-12-26T18:46:57;12.00;;;1.83;;
72674;SDS011;60752;53.962;9.614;2022-12-26T18:52:02;9.23;;;1.67;;
72674;SDS011;60752;53.962;9.614;2022-12-26T18:57:03;10.70;;;1.65;;
72674;SDS011;60752;53.962;9.614;2022-12-26T19:02:04;11.00;;;1.67;;
72674;SDS011;60752;53.962;9.614;2022-12-26T19:07:14;8.40;;;1.63;;
72674;SDS011;60752;53.962;9.614;2022-12-26T19:12:16;11.33;;;1.60;;
72674;SDS011;60752;53.962;9.614;2022-12-26T19:17:16;10.70;;;1.27;;
72674;SDS011;60752;53.962;9.614;2022-12-26T19:22:18;12.95;;;1.77;;
72674;SDS011;60752;53.962;9.614;2022-12-26T19:27:18;11.60;;;2.83;;
72674;SDS011;60752;53.962;9.614;2022-12-26T19:32:19;9.35;;;1.40;;
72674;SDS011;60752;53.962;9.614;2022-12-26T19:37:21;7.30;;;1.33;;
72674;SDS011;60752;53.962;9.614;2022-12-26T19:42:22;11.37;;;2.40;;
72674;SDS011;60752;53.962;9.614;2022-12-26T19:47:25;11.00;;;1.40;;
72674;SDS011;60752;53.962;9.614;2022-12-26T19:52:28;11.10;;;1.80;;
72674;SDS011;60752;53.962;9.614;2022-12-26T19:57:29;7.73;;;1.37;;
72674;SDS011;60752;53.962;9.614;2022-12-26T20:02:29;6.78;;;1.67;;
72674;SDS011;60752;53.962;9.614;2022-12-26T20:07:31;6.77;;;1.30;;
72674;SDS011;60752;53.962;9.614;2022-12-26T20:12:32;9.03;;;1.63;;
72674;SDS011;60752;53.962;9.614;2022-12-26T20:17:33;8.90;;;1.50;;
72674;SDS011;60752;53.962;9.614;2022-12-26T20:22:34;6.30;;;1.43;;
72674;SDS011;60752;53.962;9.614;2022-12-26T20:27:35;8.77;;;1.40;;
72674;SDS011;60752;53.962;9.614;2022-12-26T20:32:37;7.50;;;1.53;;
72674;SDS011;60752;53.962;9.614;2022-12-26T20:37:39;7.43;;;1.67;;
72674;SDS011;60752;53.962;9.614;2022-12-26T20:42:39;7.57;;;1.58;;
72674;SDS011;60752;53.962;9.614;2022-12-26T20:47:40;8.83;;;1.23;;
72674;SDS011;60752;53.962;9.614;2022-12-26T20:52:42;6.90;;;1.20;;
72674;SDS011;60752;53.962;9.614;2022-12-26T20:57:42;9.07;;;1.80;;
72674;SDS011;60752;53.962;9.614;2022-12-26T21:02:43;10.17;;;1.60;;
72674;SDS011;60752;53.962;9.614;2022-12-26T21:07:45;6.33;;;1.77;;
72674;SDS011;60752;53.962;9.614;2022-12-26T21:12:45;8.05;;;1.42;;
72674;SDS011;60752;53.962;9.614;2022-12-26T21:17:46;5.73;;;0.90;;
72674;SDS011;60752;53.962;9.614;2022-12-26T21:22:48;10.80;;;1.27;;
72674;SDS011;60752;53.962;9.614;2022-12-26T21:27:48;8.27;;;1.50;;
72674;SDS011;60752;53.962;9.614;2022-12-26T21:32:49;7.80;;;1.23;;
72674;SDS011;60752;53.962;9.614;2022-12-26T21:37:51;4.80;;;1.23;;
72674;SDS011;60752;53.962;9.614;2022-12-26T21:42:51;6.82;;;1.20;;
72674;SDS011;60752;53.962;9.614;2022-12-26T21:47:54;6.67;;;1.23;;
72674;SDS011;60752;53.962;9.614;2022-12-26T21:52:56;4.07;;;1.10;;
72674;SDS011;60752;53.962;9.614;2022-12-26T21:57:57;6.10;;;1.13;;
72674;SDS011;60752;53.962;9.614;2022-12-26T22:02:59;4.83;;;1.10;;
72674;SDS011;60752;53.962;9.614;2022-12-26T22:08:02;7.10;;;1.20;;
72674;SDS011;60752;53.962;9.614;2022-12-26T22:13:03;4.57;;;1.13;;
72674;SDS011;60752;53.962;9.614;2022-12-26T22:18:04;9.95;;;1.13;;
72674;SDS011;60752;53.962;9.614;2022-12-26T22:23:08;4.07;;;0.87;;
72674;SDS011;60752;53.962;9.614;2022-12-26T22:28:08;9.70;;;1.55;;
72674;SDS011;60752;53.962;9.614;2022-12-26T22:33:09;16.20;;;1.87;;
72674;SDS011;60752;53.962;9.614;2022-12-26T22:38:11;9.17;;;1.67;;
72674;SDS011;60752;53.962;9.614;2022-12-26T22:43:11;8.13;;;1.23;;
72674;SDS011;60752;53.962;9.614;2022-12-26T22:48:12;7.53;;;1.00;;
72674;SDS011;60752;53.962;9.614;2022-12-26T22:53:22;9.93;;;1.50;;
72674;SDS011;60752;53.962;9.614;2022-12-26T22:58:23;9.55;;;1.42;;
72674;SDS011;60752;53.962;9.614;2022-12-26T23:03:24;3.97;;;1.40;;
72674;SDS011;60752;53.962;9.614;2022-12-26T23:08:27;7.03;;;1.35;;
72674;SDS011;60752;53.962;9.614;2022-12-26T23:13:28;3.63;;;0.93;;
72674;SDS011;60752;53.962;9.614;2022-12-26T23:18:31;4.87;;;1.30;;
72674;SDS011;60752;53.962;9.614;2022-12-26T23:23:37;7.38;;;1.25;;
72674;SDS011;60752;53.962;9.614;2022-12-26T23:28:38;4.45;;;1.17;;
72674;SDS011;60752;53.962;9.614;2022-12-26T23:33:38;5.83;;;0.97;;
72674;SDS011;60752;53.962;9.614;2022-12-26T23:38:41;4.03;;;1.10;;
72674;SDS011;60752;53.962;9.614;2022-12-26T23:43:41;4.80;;;1.42;;
72674;SDS011;60752;53.962;9.614;2022-12-26T23:48:42;7.07;;;1.60;;
72674;SDS011;60752;53.962;9.614;2022-12-26T23:53:43;5.40;;;1.10;;
72674;SDS011;60752;53.962;9.614;2022-12-26T23:58:44;5.53;;;1.55;;
